Current Conditions
Overcast
Conditions



Pressure
1011.92 (hPa) - 29.88 (inHG)
Visibility

10.0 (km) - 6.2 (miles)
   Temperature
21  °C
70°F
8  °C
Dewpoint
43  %
 Humidity
   Wind Speed
10  km/h
5  kts
6  mph
2.7  m/s
   Wind Direction
 280°
Due West
   Airport Data
YMEN
Location Melbourne Essendon 7 km (4.35 mi)
Metar :YMEN 240400Z AUTO 28005KT 9999 // OVC058 21/08 Q1012
Fri 24th January 15:00 pm
   Raw Metar Info
Raw METAR is the most common format in the world for the transmission of observational weather data. It is highly standardized through the International Civil Aviation Organization (ICAO), which allows it to be understood throughout most of the world.
   API Info
Data Provided by
https://www.checkwx.com/weather/YMEN
   © Info
CSS/SVG/PHP scripts were developed by weather34.com for use in the weather34 template © 2015-2020

Guide Info provided by Metar-Wikipedia